createdAt,value
2019-02-21T00:01:44.788Z,4.80
2019-02-21T00:04:14.183Z,4.80
2019-02-21T00:06:43.412Z,4.80
2019-02-21T00:09:13.047Z,4.80
2019-02-21T00:11:42.649Z,4.80
2019-02-21T00:14:12.183Z,4.80
2019-02-21T00:16:41.478Z,4.80
2019-02-21T00:19:11.112Z,4.80
2019-02-21T00:21:40.397Z,4.80
2019-02-21T00:24:09.792Z,4.70
2019-02-21T00:26:39.148Z,4.70
2019-02-21T00:29:08.499Z,4.70
2019-02-21T00:31:40.007Z,4.70
2019-02-21T00:34:09.056Z,4.70
2019-02-21T00:36:38.421Z,4.70
2019-02-21T00:39:08.093Z,4.70
2019-02-21T00:41:37.552Z,4.70
2019-02-21T00:44:06.801Z,4.70
2019-02-21T00:46:36.095Z,4.70
2019-02-21T00:49:05.361Z,4.70
2019-02-21T00:51:34.667Z,4.70
2019-02-21T00:54:03.966Z,4.70
2019-02-21T00:56:33.464Z,4.70
2019-02-21T00:59:02.767Z,4.70
2019-02-21T01:01:32.024Z,4.70
2019-02-21T01:04:01.394Z,4.70
2019-02-21T01:06:30.698Z,4.70
2019-02-21T01:09:00.060Z,4.70
2019-02-21T01:11:29.571Z,4.70
2019-02-21T01:13:58.932Z,4.70
2019-02-21T01:16:28.315Z,4.70
2019-02-21T01:18:57.804Z,4.70
2019-02-21T01:21:27.283Z,4.70
2019-02-21T01:23:56.655Z,4.70
2019-02-21T01:26:25.927Z,4.60
2019-02-21T01:28:55.404Z,4.60
2019-02-21T01:31:24.788Z,4.60
2019-02-21T01:33:55.080Z,4.60
2019-02-21T01:36:24.476Z,4.60
2019-02-21T01:38:53.884Z,4.60
2019-02-21T01:41:23.167Z,4.60
2019-02-21T01:43:52.551Z,4.60
2019-02-21T01:46:21.854Z,4.60
2019-02-21T01:48:51.246Z,4.50
2019-02-21T01:51:20.819Z,4.50
2019-02-21T01:53:50.236Z,4.50
2019-02-21T01:56:19.584Z,4.50
2019-02-21T01:58:49.150Z,4.50
2019-02-21T02:01:18.584Z,4.50
2019-02-21T02:03:48.142Z,4.50
2019-02-21T02:06:17.523Z,4.50
2019-02-21T02:08:46.850Z,4.50
2019-02-21T02:11:16.320Z,4.50
2019-02-21T02:13:45.663Z,4.50
2019-02-21T02:16:15.000Z,4.50
2019-02-21T02:18:44.310Z,4.50
2019-02-21T02:21:13.961Z,4.50
2019-02-21T02:23:43.380Z,4.50
2019-02-21T02:26:12.676Z,4.50
2019-02-21T02:28:42.096Z,4.50
2019-02-21T02:31:22.072Z,4.50
2019-02-21T02:33:42.490Z,4.60
2019-02-21T02:36:11.972Z,4.60
2019-02-21T02:38:41.281Z,4.60
2019-02-21T02:41:10.834Z,4.50
2019-02-21T02:43:40.135Z,4.50
2019-02-21T02:46:09.529Z,4.40
2019-02-21T02:48:38.952Z,4.40
2019-02-21T02:51:08.349Z,4.40
2019-02-21T02:53:37.689Z,4.40
2019-02-21T02:56:07.048Z,4.40
2019-02-21T02:58:36.416Z,4.40
2019-02-21T03:01:05.729Z,4.40
2019-02-21T03:03:35.223Z,4.40
2019-02-21T03:06:04.750Z,4.40
2019-02-21T03:08:34.255Z,4.40
2019-02-21T03:11:03.608Z,4.40
2019-02-21T03:13:32.933Z,4.30
2019-02-21T03:16:02.476Z,4.30
2019-02-21T03:18:32.146Z,4.30
2019-02-21T03:21:01.481Z,4.30
2019-02-21T03:23:30.802Z,4.30
2019-02-21T03:26:00.235Z,4.30
2019-02-21T03:28:29.699Z,4.30
2019-02-21T03:30:59.053Z,4.40
2019-02-21T03:33:28.453Z,4.40
2019-02-21T03:35:57.918Z,4.40
2019-02-21T03:38:27.135Z,4.40
2019-02-21T03:40:56.717Z,4.40
2019-02-21T03:43:26.084Z,4.40
2019-02-21T03:45:55.392Z,4.40
2019-02-21T03:48:24.692Z,4.40
2019-02-21T03:50:54.020Z,4.40
2019-02-21T03:53:24.148Z,4.40
2019-02-21T03:55:53.876Z,4.40
2019-02-21T03:58:23.443Z,4.40
2019-02-21T04:00:52.905Z,4.30
2019-02-21T04:03:22.167Z,4.40
2019-02-21T04:05:51.956Z,4.40
2019-02-21T04:08:21.351Z,4.40
2019-02-21T04:10:51.026Z,4.40
2019-02-21T04:13:20.629Z,4.40
2019-02-21T04:15:49.961Z,4.30
2019-02-21T04:18:19.221Z,4.40
2019-02-21T04:20:48.526Z,4.30
2019-02-21T04:23:17.927Z,4.40
2019-02-21T04:25:47.332Z,4.40
2019-02-21T04:28:16.707Z,4.40
2019-02-21T04:30:46.073Z,4.40
2019-02-21T04:33:15.698Z,4.30
2019-02-21T04:35:45.084Z,4.30
2019-02-21T04:38:14.607Z,4.30
2019-02-21T04:40:43.845Z,4.40
2019-02-21T04:43:13.133Z,4.40
2019-02-21T04:45:42.584Z,4.40
2019-02-21T04:48:11.910Z,4.30
2019-02-21T04:50:41.304Z,4.40
2019-02-21T04:53:10.639Z,4.30
2019-02-21T04:55:40.083Z,4.40
2019-02-21T04:58:09.398Z,4.40
2019-02-21T05:00:38.694Z,4.40
2019-02-21T05:03:08.036Z,4.40
2019-02-21T05:05:37.400Z,4.30
2019-02-21T05:08:07.172Z,4.30
2019-02-21T05:10:36.477Z,4.40
2019-02-21T05:13:05.935Z,4.30
2019-02-21T05:15:35.281Z,4.30
2019-02-21T05:18:04.673Z,4.30
2019-02-21T05:20:34.310Z,4.30
2019-02-21T05:23:03.727Z,4.30
2019-02-21T05:25:33.337Z,4.30
2019-02-21T05:28:20.582Z,4.30
2019-02-21T05:30:51.733Z,4.30
2019-02-21T05:33:38.976Z,4.30
2019-02-21T05:36:10.548Z,4.30
2019-02-21T05:38:47.406Z,4.30
2019-02-21T05:41:38.566Z,4.30
2019-02-21T05:44:23.262Z,4.30
2019-02-21T05:47:20.964Z,4.20
2019-02-21T05:50:08.614Z,4.20
2019-02-21T05:52:59.726Z,4.20
2019-02-21T05:55:34.969Z,4.20
2019-02-21T05:58:25.985Z,4.20
2019-02-21T06:01:14.348Z,4.20
2019-02-21T06:03:48.653Z,4.20
2019-02-21T06:06:42.633Z,4.20
2019-02-21T06:09:36.937Z,4.10
2019-02-21T06:12:32.892Z,4.10
2019-02-21T06:15:10.363Z,4.10
2019-02-21T06:17:47.703Z,4.10
2019-02-21T06:20:45.351Z,4.20
2019-02-21T06:23:29.444Z,4.20
2019-02-21T06:26:27.204Z,4.20
2019-02-21T06:29:16.592Z,4.10
2019-02-21T06:31:46.525Z,4.20
2019-02-21T06:34:16.008Z,4.20
2019-02-21T06:36:45.641Z,4.20
2019-02-21T06:39:15.199Z,4.20
2019-02-21T06:41:44.711Z,4.20
2019-02-21T06:44:14.174Z,4.20
2019-02-21T06:46:43.788Z,4.20
2019-02-21T06:49:13.359Z,4.30
2019-02-21T06:51:42.818Z,4.30
2019-02-21T06:54:12.375Z,4.30
2019-02-21T06:56:41.893Z,4.30
2019-02-21T06:59:14.098Z,4.30
2019-02-21T07:01:43.720Z,4.40
2019-02-21T07:04:13.215Z,4.40
2019-02-21T07:06:45.955Z,4.50
2019-02-21T07:09:15.591Z,4.50
2019-02-21T07:11:46.089Z,4.60
2019-02-21T07:14:18.291Z,4.60
2019-02-21T07:16:47.923Z,4.70
2019-02-21T07:19:19.860Z,4.70
2019-02-21T07:21:49.143Z,4.80
2019-02-21T07:24:18.437Z,4.80
2019-02-21T07:26:48.072Z,4.90
2019-02-21T07:29:17.348Z,4.90
2019-02-21T07:31:49.177Z,5.00
2019-02-21T07:34:17.512Z,5.00
2019-02-21T07:36:46.720Z,5.00
2019-02-21T07:39:19.775Z,5.00
2019-02-21T07:41:50.059Z,5.10
2019-02-21T07:44:19.438Z,5.10
2019-02-21T07:46:48.922Z,5.10
2019-02-21T07:49:18.190Z,5.10
2019-02-21T07:51:47.472Z,5.20
2019-02-21T07:54:16.654Z,5.20
2019-02-21T07:56:45.931Z,5.20
2019-02-21T07:59:15.238Z,5.20
2019-02-21T08:01:45.369Z,5.30
2019-02-21T08:04:14.838Z,5.30
2019-02-21T08:06:44.312Z,5.40
2019-02-21T08:09:13.571Z,5.40
2019-02-21T08:11:42.827Z,5.50
2019-02-21T08:14:12.152Z,5.50
2019-02-21T08:16:41.430Z,5.50
2019-02-21T08:19:10.625Z,5.60
2019-02-21T08:21:43.233Z,5.70
2019-02-21T08:24:10.828Z,5.70
2019-02-21T08:26:40.095Z,5.70
2019-02-21T08:29:09.399Z,5.80
2019-02-21T08:31:38.613Z,5.80
2019-02-21T08:34:12.120Z,5.90
2019-02-21T08:36:41.442Z,5.90
2019-02-21T08:39:11.206Z,5.90
2019-02-21T08:41:40.991Z,6.00
2019-02-21T08:44:12.498Z,6.00
2019-02-21T08:46:41.856Z,6.10
2019-02-21T08:49:11.348Z,6.20
2019-02-21T08:51:40.596Z,6.20
2019-02-21T08:54:11.455Z,6.20
2019-02-21T08:56:40.810Z,6.30
2019-02-21T08:59:10.094Z,6.40
2019-02-21T09:01:39.398Z,6.50
2019-02-21T09:04:18.204Z,6.60
2019-02-21T09:06:39.809Z,6.60
2019-02-21T09:09:09.332Z,6.70
2019-02-21T09:11:39.129Z,6.70
2019-02-21T09:14:08.380Z,6.80
2019-02-21T09:16:37.670Z,6.80
2019-02-21T09:19:06.926Z,6.90
2019-02-21T09:21:36.305Z,6.90
2019-02-21T09:24:05.583Z,7.00
2019-02-21T09:26:34.887Z,7.10
2019-02-21T09:29:07.223Z,7.10
2019-02-21T09:31:42.338Z,7.20
2019-02-21T09:34:20.776Z,7.30
2019-02-21T09:36:42.766Z,7.30
2019-02-21T09:39:12.079Z,7.40
2019-02-21T09:41:41.304Z,7.50
2019-02-21T09:44:10.532Z,7.50
2019-02-21T09:46:40.608Z,7.60
2019-02-21T09:49:10.204Z,7.60
2019-02-21T09:51:39.474Z,7.60
2019-02-21T09:54:08.935Z,7.80
2019-02-21T09:56:38.288Z,7.80
2019-02-21T09:59:07.566Z,7.90
2019-02-21T10:01:36.943Z,7.90
2019-02-21T10:04:06.385Z,7.90
2019-02-21T10:06:35.758Z,8.00
2019-02-21T10:09:06.132Z,8.10
2019-02-21T10:11:35.497Z,8.10
2019-02-21T10:14:04.769Z,8.10
2019-02-21T10:16:34.316Z,8.20
2019-02-21T10:19:03.701Z,8.30
2019-02-21T10:21:33.119Z,8.30
2019-02-21T10:24:03.098Z,8.40
2019-02-21T10:26:32.519Z,8.50
2019-02-21T10:29:02.628Z,8.50
2019-02-21T10:31:32.096Z,8.50
2019-02-21T10:34:01.765Z,8.60
2019-02-21T10:36:31.111Z,8.70
2019-02-21T10:39:00.539Z,8.70
2019-02-21T10:41:29.905Z,8.80
2019-02-21T10:43:59.305Z,8.90
2019-02-21T10:46:30.823Z,9.00
2019-02-21T10:48:59.860Z,9.00
2019-02-21T10:51:29.364Z,9.10
2019-02-21T10:53:58.881Z,9.10
2019-02-21T10:56:28.435Z,9.10
2019-02-21T10:58:57.881Z,9.20
2019-02-21T11:01:27.300Z,9.10
2019-02-21T11:03:56.751Z,9.10
2019-02-21T11:06:26.096Z,9.20
2019-02-21T11:08:55.617Z,9.20
2019-02-21T11:11:25.062Z,9.30
2019-02-21T11:13:58.255Z,9.30
2019-02-21T11:16:27.867Z,9.40
2019-02-21T11:18:57.539Z,9.40
2019-02-21T11:21:33.516Z,9.50
2019-02-21T11:24:06.272Z,9.40
2019-02-21T11:26:40.590Z,9.50
2019-02-21T11:29:10.068Z,9.50
2019-02-21T11:31:46.556Z,9.60
2019-02-21T11:34:16.396Z,9.60
2019-02-21T11:36:49.876Z,9.70
2019-02-21T11:39:19.375Z,9.70
2019-02-21T11:41:56.620Z,9.80
2019-02-21T11:44:31.520Z,9.80
2019-02-21T11:47:09.298Z,9.80
2019-02-21T11:49:40.999Z,9.80
2019-02-21T11:52:18.014Z,9.90
2019-02-21T11:54:45.025Z,9.80
2019-02-21T11:57:14.619Z,9.90
2019-02-21T11:59:44.195Z,9.90
2019-02-21T12:02:13.651Z,10.00
2019-02-21T12:04:43.126Z,9.90
2019-02-21T12:07:12.568Z,10.00
2019-02-21T12:09:41.857Z,9.90
2019-02-21T12:12:11.464Z,9.90
2019-02-21T12:14:40.879Z,9.90
2019-02-21T12:17:10.268Z,9.80
2019-02-21T12:19:39.756Z,9.80
2019-02-21T12:22:09.560Z,9.80
2019-02-21T12:24:39.115Z,9.70
2019-02-21T12:27:08.607Z,9.70
2019-02-21T12:29:38.303Z,9.70
2019-02-21T12:32:07.867Z,9.70
2019-02-21T12:34:37.571Z,9.70
2019-02-21T12:37:09.600Z,9.70
2019-02-21T12:39:41.255Z,9.80
2019-02-21T12:42:13.293Z,9.70
2019-02-21T12:44:42.852Z,9.70
2019-02-21T12:47:12.436Z,9.70
2019-02-21T12:49:42.037Z,9.60
2019-02-21T12:52:11.617Z,9.60
2019-02-21T12:54:41.635Z,9.60
2019-02-21T12:57:11.187Z,9.60
2019-02-21T12:59:40.742Z,9.60
2019-02-21T13:02:17.194Z,9.50
2019-02-21T13:04:46.876Z,9.50
2019-02-21T13:07:17.621Z,9.50
2019-02-21T13:09:47.186Z,9.50
2019-02-21T13:12:16.767Z,9.50
2019-02-21T13:14:47.644Z,9.50
2019-02-21T13:17:17.481Z,9.50
2019-02-21T13:19:49.127Z,9.50
2019-02-21T13:22:18.944Z,9.50
2019-02-21T13:24:48.601Z,9.60
2019-02-21T13:27:18.081Z,9.60
2019-02-21T13:29:47.598Z,9.60
2019-02-21T13:32:17.242Z,9.60
2019-02-21T13:34:46.681Z,9.60
2019-02-21T13:37:28.162Z,9.60
2019-02-21T13:39:55.288Z,9.60
2019-02-21T13:42:22.156Z,9.50
2019-02-21T13:44:52.885Z,9.50
2019-02-21T13:47:22.243Z,9.50
2019-02-21T13:49:51.829Z,9.50
2019-02-21T13:52:21.323Z,9.50
2019-02-21T13:54:50.905Z,9.50
2019-02-21T13:57:20.330Z,9.40
2019-02-21T13:59:49.842Z,9.40
2019-02-21T14:02:19.269Z,9.40
2019-02-21T14:04:48.632Z,9.30
2019-02-21T14:07:18.029Z,9.30
2019-02-21T14:09:47.486Z,9.20
2019-02-21T14:12:17.119Z,9.20
2019-02-21T14:14:46.923Z,9.20
2019-02-21T14:17:16.510Z,9.20
2019-02-21T14:19:45.960Z,9.10
2019-02-21T14:22:15.523Z,9.00
2019-02-21T14:24:45.018Z,8.90
2019-02-21T14:27:14.455Z,8.90
2019-02-21T14:29:43.908Z,8.80
2019-02-21T14:32:13.358Z,8.80
2019-02-21T14:34:42.950Z,8.80
2019-02-21T14:37:12.377Z,8.70
2019-02-21T14:39:41.834Z,8.70
2019-02-21T14:42:11.362Z,8.60
2019-02-21T14:44:40.793Z,8.60
2019-02-21T14:47:10.180Z,8.60
2019-02-21T14:49:39.565Z,8.60
2019-02-21T14:52:09.220Z,8.50
2019-02-21T14:54:38.788Z,8.50
2019-02-21T14:57:15.384Z,8.50
2019-02-21T14:59:45.138Z,8.50
2019-02-21T15:02:14.422Z,8.40
2019-02-21T15:04:43.818Z,8.40
2019-02-21T15:07:13.139Z,8.40
2019-02-21T15:09:45.669Z,8.40
2019-02-21T15:12:17.159Z,8.40
2019-02-21T15:14:48.947Z,8.30
2019-02-21T15:17:18.656Z,8.30
2019-02-21T15:19:47.997Z,8.20
2019-02-21T15:22:17.339Z,8.20
2019-02-21T15:24:46.590Z,8.10
2019-02-21T15:27:17.740Z,8.10
2019-02-21T15:29:47.524Z,8.10
2019-02-21T15:32:16.883Z,8.00
2019-02-21T15:34:49.263Z,8.00
2019-02-21T15:37:20.662Z,8.10
2019-02-21T15:39:52.396Z,8.00
2019-02-21T15:42:24.313Z,8.00
2019-02-21T15:44:53.646Z,8.00
2019-02-21T15:47:23.121Z,8.00
2019-02-21T15:49:52.495Z,7.90
2019-02-21T15:52:22.702Z,7.90
2019-02-21T15:54:52.361Z,7.80
2019-02-21T15:57:21.882Z,7.80
2019-02-21T15:59:51.279Z,7.80
2019-02-21T16:02:20.691Z,7.70
2019-02-21T16:04:50.228Z,7.70
2019-02-21T16:07:20.018Z,7.60
2019-02-21T16:10:10.871Z,7.60
2019-02-21T16:12:40.537Z,7.60
2019-02-21T16:15:11.123Z,7.50
2019-02-21T16:17:40.583Z,7.40
2019-02-21T16:20:11.388Z,7.40
2019-02-21T16:22:40.895Z,7.40
2019-02-21T16:25:12.425Z,7.40
2019-02-21T16:27:41.770Z,7.40
2019-02-21T16:30:12.804Z,7.40
2019-02-21T16:32:42.461Z,7.40
2019-02-21T16:35:12.365Z,7.30
2019-02-21T16:37:41.784Z,7.30
2019-02-21T16:40:12.496Z,7.20
2019-02-21T16:42:41.820Z,7.20
2019-02-21T16:45:12.379Z,7.20
2019-02-21T16:47:41.735Z,7.10
2019-02-21T16:50:12.163Z,7.10
2019-02-21T16:52:41.516Z,7.10
2019-02-21T16:55:13.341Z,7.00
2019-02-21T16:57:42.723Z,7.00
2019-02-21T17:00:13.583Z,7.00
2019-02-21T17:02:43.164Z,6.90
2019-02-21T17:05:12.896Z,6.80
2019-02-21T17:07:42.507Z,6.80
2019-02-21T17:10:12.433Z,6.70
2019-02-21T17:12:41.938Z,6.70
2019-02-21T17:15:12.057Z,6.60
2019-02-21T17:17:41.425Z,6.50
2019-02-21T17:20:12.735Z,6.50
2019-02-21T17:22:42.013Z,6.50
2019-02-21T17:25:12.416Z,6.50
2019-02-21T17:27:42.267Z,6.40
2019-02-21T17:30:13.823Z,6.40
2019-02-21T17:32:43.442Z,6.40
2019-02-21T17:35:13.266Z,6.30
2019-02-21T17:37:42.703Z,6.20
2019-02-21T17:40:15.622Z,6.20
2019-02-21T17:42:46.014Z,6.20
2019-02-21T17:45:15.549Z,6.20
2019-02-21T17:47:45.475Z,6.10
2019-02-21T17:50:34.045Z,6.10
2019-02-21T17:53:03.674Z,6.10
2019-02-21T17:55:52.251Z,6.10
2019-02-21T17:58:21.609Z,6.00
2019-02-21T18:00:51.045Z,5.90
2019-02-21T18:03:20.467Z,5.80
2019-02-21T18:05:49.847Z,5.80
2019-02-21T18:08:19.355Z,5.90
2019-02-21T18:10:48.775Z,5.80
2019-02-21T18:13:18.106Z,5.80
2019-02-21T18:15:48.130Z,5.80
2019-02-21T18:18:17.871Z,5.70
2019-02-21T18:20:47.181Z,5.70
2019-02-21T18:23:17.115Z,5.70
2019-02-21T18:25:50.608Z,5.70
2019-02-21T18:28:20.049Z,5.70
2019-02-21T18:30:49.535Z,5.70
2019-02-21T18:33:19.164Z,5.70
2019-02-21T18:35:48.477Z,5.70
2019-02-21T18:38:17.818Z,5.60
2019-02-21T18:40:47.722Z,5.60
2019-02-21T18:43:17.112Z,5.60
2019-02-21T18:45:46.581Z,5.50
2019-02-21T18:48:16.013Z,5.50
2019-02-21T18:50:45.645Z,5.40
2019-02-21T18:53:15.183Z,5.40
2019-02-21T18:55:44.586Z,5.40
2019-02-21T18:58:14.532Z,5.30
2019-02-21T19:00:44.404Z,5.30
2019-02-21T19:03:13.849Z,5.30
2019-02-21T19:08:41.627Z,5.30
2019-02-21T19:13:52.367Z,5.20
2019-02-21T19:16:21.896Z,5.20
2019-02-21T19:18:51.241Z,5.20
2019-02-21T19:21:20.535Z,5.20
2019-02-21T19:23:49.984Z,5.20
2019-02-21T19:26:19.555Z,5.20
2019-02-21T19:34:25.491Z,5.20
2019-02-21T19:37:03.389Z,5.20
2019-02-21T19:39:34.423Z,5.20
2019-02-21T19:42:04.005Z,5.20
2019-02-21T19:44:33.641Z,5.20
2019-02-21T19:47:27.070Z,5.20
2019-02-21T19:50:04.483Z,5.20
2019-02-21T19:52:29.745Z,5.20
2019-02-21T19:55:06.772Z,5.20
2019-02-21T19:57:41.462Z,5.20
2019-02-21T20:00:14.318Z,5.20
2019-02-21T20:02:43.911Z,5.30
2019-02-21T20:05:13.329Z,5.20
2019-02-21T20:07:42.812Z,5.20
2019-02-21T20:10:12.236Z,5.20
2019-02-21T20:12:41.925Z,5.20
2019-02-21T20:15:11.615Z,5.30
2019-02-21T20:17:41.487Z,5.30
2019-02-21T20:20:12.247Z,5.20
2019-02-21T20:22:41.602Z,5.20
2019-02-21T20:25:11.311Z,5.20
2019-02-21T20:27:40.813Z,5.20
2019-02-21T20:30:12.631Z,5.20
2019-02-21T20:32:41.950Z,5.30
2019-02-21T20:35:11.629Z,5.20
2019-02-21T20:37:40.959Z,5.20
2019-02-21T20:40:10.706Z,5.20
2019-02-21T20:42:40.076Z,5.20
2019-02-21T20:45:09.736Z,5.20
2019-02-21T20:47:39.651Z,5.20
2019-02-21T20:50:09.427Z,5.20
2019-02-21T20:52:38.884Z,5.20
2019-02-21T20:55:08.543Z,5.20
2019-02-21T20:57:38.035Z,5.20
2019-02-21T21:00:11.837Z,5.20
2019-02-21T21:02:44.628Z,5.20
2019-02-21T21:05:15.261Z,5.20
2019-02-21T21:07:44.784Z,5.20
2019-02-21T21:10:14.795Z,5.20
2019-02-21T21:12:44.214Z,5.20
2019-02-21T21:15:13.864Z,5.20
2019-02-21T21:17:43.302Z,5.20
2019-02-21T21:20:16.944Z,5.20
2019-02-21T21:22:44.500Z,5.20
2019-02-21T21:25:14.783Z,5.20
2019-02-21T21:27:44.262Z,5.20
2019-02-21T21:30:14.636Z,5.20
2019-02-21T21:32:44.344Z,5.20
2019-02-21T21:35:13.750Z,5.20
2019-02-21T21:37:43.295Z,5.20
2019-02-21T21:40:13.880Z,5.20
2019-02-21T21:42:43.173Z,5.20
2019-02-21T21:45:14.918Z,5.20
2019-02-21T21:47:44.428Z,5.20
2019-02-21T21:50:14.945Z,5.20
2019-02-21T21:52:44.399Z,5.20
2019-02-21T21:55:14.539Z,5.20
2019-02-21T21:57:44.131Z,5.20
2019-02-21T22:00:17.999Z,5.20
2019-02-21T22:02:47.597Z,5.20
2019-02-21T22:05:17.323Z,5.20
2019-02-21T22:07:49.176Z,5.20
2019-02-21T22:10:17.924Z,5.20
2019-02-21T22:12:47.308Z,5.20
2019-02-21T22:15:17.102Z,5.30
2019-02-21T22:17:46.563Z,5.30
2019-02-21T22:20:16.067Z,5.30
2019-02-21T22:22:45.572Z,5.30
2019-02-21T22:25:15.595Z,5.30
2019-02-21T22:27:45.210Z,5.30
2019-02-21T22:30:15.896Z,5.30
2019-02-21T22:32:45.321Z,5.30
2019-02-21T22:35:14.901Z,5.30
2019-02-21T22:37:44.302Z,5.30
2019-02-21T22:40:14.189Z,5.30
2019-02-21T22:42:43.625Z,5.30
2019-02-21T22:45:13.571Z,5.30
2019-02-21T22:47:42.885Z,5.20
2019-02-21T22:50:13.984Z,5.20
2019-02-21T22:52:43.326Z,5.20
2019-02-21T22:55:12.708Z,5.30
2019-02-21T22:57:42.108Z,5.30
2019-02-21T23:00:48.297Z,5.20
2019-02-21T23:03:17.767Z,5.20
2019-02-21T23:06:28.653Z,5.30
2019-02-21T23:08:58.035Z,5.30
2019-02-21T23:11:27.385Z,5.20
2019-02-21T23:13:57.092Z,5.30
2019-02-21T23:16:26.424Z,5.30
2019-02-21T23:18:55.839Z,5.30
2019-02-21T23:21:25.162Z,5.30
2019-02-21T23:23:54.533Z,5.30
2019-02-21T23:34:42.949Z,5.30
2019-02-21T23:37:12.369Z,5.30
2019-02-21T23:39:41.700Z,5.30
2019-02-21T23:42:11.102Z,5.30
2019-02-21T23:44:40.423Z,5.30
2019-02-21T23:47:09.855Z,5.30
2019-02-21T23:49:39.451Z,5.30
2019-02-21T23:52:08.840Z,5.30
